Time;durP1;ratioP1;P1;durP2;ratioP2;P2;SDS_P1;SDS_P2;PMS_P1;PMS_P2;Temp;Humidity;BMP_temperature;BMP_pressure;BME280_temperature;BME280_humidity;BME280_pressure;Samples;Min_cycle;Max_cycle;Signal;HPM_P1;HPM_P2
2020/12/20 00:01:39;;;;;;;21.53;11.50;;;;;;;-2.33;100.00;101504.34;5044751;28;20200;-73
2020/12/20 00:04:05;;;;;;;18.93;11.37;;;;;;;-2.33;100.00;101503.47;5044576;28;20269;-73
2020/12/20 00:06:36;;;;;;;22.10;12.27;;;;;;;-2.36;100.00;101516.13;5049633;28;20200;-73
2020/12/20 00:09:07;;;;;;;23.20;11.83;;;;;;;-2.40;100.00;101504.91;5044805;28;20213;-73
2020/12/20 00:11:38;;;;;;;22.37;11.53;;;;;;;-2.38;100.00;101507.53;5050079;28;20525;-73
2020/12/20 00:14:26;;;;;;;21.43;11.63;;;;;;;-2.29;100.00;101507.88;5045921;28;20217;-73
2020/12/20 00:16:51;;;;;;;17.10;10.03;;;;;;;-2.28;100.00;101512.19;5049635;28;20975;-74
2020/12/20 00:19:17;;;;;;;23.00;11.93;;;;;;;-2.36;100.00;101511.88;5049956;28;20474;-73
2020/12/20 00:21:43;;;;;;;20.67;11.10;;;;;;;-2.37;100.00;101515.25;5053690;28;20205;-73
2020/12/20 00:24:10;;;;;;;19.97;10.77;;;;;;;-2.32;100.00;101521.41;5048061;28;20211;-73
2020/12/20 00:26:37;;;;;;;21.70;11.63;;;;;;;-2.33;100.00;101523.91;5052235;28;20451;-73
2020/12/20 00:29:03;;;;;;;20.77;10.70;;;;;;;-2.35;100.00;101516.19;5054585;28;20448;-73
2020/12/20 00:31:29;;;;;;;18.47;10.77;;;;;;;-2.39;100.00;101524.53;5035034;28;20229;-73
2020/12/20 00:33:55;;;;;;;19.20;9.67;;;;;;;-2.39;100.00;101531.31;5055433;28;20224;-73
2020/12/20 00:36:21;;;;;;;19.97;11.53;;;;;;;-2.42;100.00;101538.88;5028865;28;20201;-73
2020/12/20 00:38:47;;;;;;;21.20;11.17;;;;;;;-2.46;100.00;101530.22;5051760;28;20198;-73
2020/12/20 00:41:13;;;;;;;19.97;11.10;;;;;;;-2.44;100.00;101540.50;5047694;28;20504;-73
2020/12/20 00:43:39;;;;;;;19.23;11.00;;;;;;;-2.44;100.00;101543.91;5040776;28;20213;-73
2020/12/20 00:46:05;;;;;;;22.43;11.70;;;;;;;-2.39;100.00;101544.06;5049712;28;20934;-73
2020/12/20 00:48:31;;;;;;;18.50;10.80;;;;;;;-2.31;100.00;101542.72;5052632;28;20502;-73
2020/12/20 00:50:57;;;;;;;19.93;10.83;;;;;;;-2.35;100.00;101549.38;5031438;28;20224;-73
2020/12/20 00:53:23;;;;;;;20.50;11.67;;;;;;;-2.40;100.00;101544.91;5030531;28;20216;-73
2020/12/20 00:55:49;;;;;;;16.80;9.30;;;;;;;-2.43;100.00;101544.78;5051879;28;20834;-73
2020/12/20 00:58:15;;;;;;;19.90;10.83;;;;;;;-2.53;100.00;101546.09;5038908;28;20198;-73
2020/12/20 01:00:42;;;;;;;19.60;10.60;;;;;;;-2.56;100.00;101553.63;5053450;28;20271;-73
2020/12/20 01:03:07;;;;;;;18.43;10.13;;;;;;;-2.72;100.00;101555.50;5049292;28;21182;-74
2020/12/20 01:05:33;;;;;;;21.90;11.20;;;;;;;-2.75;100.00;101551.94;5061248;28;20447;-73
2020/12/20 01:07:59;;;;;;;17.13;10.10;;;;;;;-2.76;100.00;101550.19;5050894;28;20248;-73
2020/12/20 01:10:25;;;;;;;15.90;9.00;;;;;;;-2.70;100.00;101553.03;5032931;28;20253;-73
2020/12/20 01:12:51;;;;;;;15.93;9.20;;;;;;;-2.77;100.00;101553.56;5049088;28;20488;-73
2020/12/20 01:15:22;;;;;;;19.77;10.33;;;;;;;-2.79;100.00;101552.63;5038783;28;20202;-73
2020/12/20 01:17:52;;;;;;;16.03;8.77;;;;;;;-2.74;100.00;101552.03;5055569;28;20892;-73
2020/12/20 01:20:19;;;;;;;19.93;9.77;;;;;;;-2.85;100.00;101565.97;5038379;28;20547;-73
2020/12/20 01:22:45;;;;;;;18.00;9.40;;;;;;;-2.85;100.00;101563.44;5034418;28;20453;-73
2020/12/20 01:25:12;;;;;;;18.90;10.60;;;;;;;-2.90;100.00;101544.53;5031792;28;20805;-73
2020/12/20 01:27:40;;;;;;;16.07;9.47;;;;;;;-2.92;100.00;101546.09;5056496;28;20503;-73
2020/12/20 01:30:07;;;;;;;18.37;10.47;;;;;;;-3.03;100.00;101547.31;5036503;28;20479;-73
2020/12/20 01:32:33;;;;;;;18.40;9.67;;;;;;;-3.00;100.00;101555.13;5048213;28;20915;-73
2020/12/20 01:35:07;;;;;;;17.57;10.10;;;;;;;-3.00;100.00;101544.91;5034180;28;20548;-73
2020/12/20 01:37:34;;;;;;;15.33;8.93;;;;;;;-3.04;100.00;101551.56;5035124;28;20519;-73
2020/12/20 01:40:03;;;;;;;17.43;9.87;;;;;;;-3.05;100.00;101552.34;5035037;28;20518;-73
2020/12/20 01:42:30;;;;;;;17.27;9.23;;;;;;;-3.11;100.00;101544.44;5042570;28;20464;-73
2020/12/20 01:44:57;;;;;;;13.53;8.80;;;;;;;-3.20;100.00;101552.56;5036248;28;21019;-73
2020/12/20 01:47:32;;;;;;;16.07;9.50;;;;;;;-3.29;100.00;101547.94;5041794;28;20474;-73
2020/12/20 01:50:04;;;;;;;15.83;10.00;;;;;;;-3.31;100.00;101546.97;5034591;28;20504;-73
2020/12/20 01:52:32;;;;;;;15.70;9.13;;;;;;;-3.33;100.00;101547.72;5032013;28;20526;-73
2020/12/20 01:55:00;;;;;;;18.00;9.70;;;;;;;-3.16;100.00;101546.78;5046555;28;20464;-73
2020/12/20 01:57:34;;;;;;;15.97;9.10;;;;;;;-3.23;100.00;101549.88;5028864;28;20452;-73
2020/12/20 02:00:14;;;;;;;16.93;9.23;;;;;;;-3.22;100.00;101550.72;5038841;28;20566;-73
2020/12/20 02:02:55;;;;;;;16.07;9.37;;;;;;;-3.16;100.00;101554.44;5039197;28;20466;-73
2020/12/20 02:05:21;;;;;;;16.57;9.67;;;;;;;-3.21;100.00;101548.25;5032173;28;20463;-73
2020/12/20 02:07:52;;;;;;;16.97;9.33;;;;;;;-3.20;100.00;101547.47;5033427;28;20855;-73
2020/12/20 02:10:19;;;;;;;15.27;8.90;;;;;;;-3.32;100.00;101547.78;5029679;28;20490;-73
2020/12/20 02:12:47;;;;;;;16.63;9.17;;;;;;;-3.38;100.00;101551.72;5054440;28;20459;-73
2020/12/20 02:15:20;;;;;;;17.63;9.27;;;;;;;-3.25;100.00;101554.03;5040054;28;20476;-73
2020/12/20 02:17:48;;;;;;;18.50;10.10;;;;;;;-3.31;100.00;101553.75;5042506;28;20835;-73
2020/12/20 02:20:14;;;;;;;14.30;8.57;;;;;;;-3.29;100.00;101560.69;5050406;28;20543;-73
2020/12/20 02:23:02;;;;;;;15.90;9.03;;;;;;;-3.29;100.00;101550.47;5043528;28;20257;-73
2020/12/20 02:25:36;;;;;;;14.53;8.80;;;;;;;-3.22;100.00;101549.06;5058051;28;20959;-73
2020/12/20 02:28:12;;;;;;;14.47;8.20;;;;;;;-3.23;100.00;101549.88;5028874;28;20554;-73
2020/12/20 02:30:39;;;;;;;16.47;8.87;;;;;;;-3.17;100.00;101545.03;5050118;28;20565;-73
2020/12/20 02:33:18;;;;;;;15.77;9.10;;;;;;;-3.14;100.00;101541.75;5045879;28;20581;-72
2020/12/20 02:35:45;;;;;;;19.00;9.73;;;;;;;-3.23;100.00;101542.22;5048577;28;20505;-73
2020/12/20 02:38:12;;;;;;;15.47;8.73;;;;;;;-3.29;100.00;101544.47;5033086;28;20604;-72
2020/12/20 02:40:41;;;;;;;16.20;9.53;;;;;;;-3.23;100.00;101547.31;5042232;28;20502;-72
2020/12/20 02:43:09;;;;;;;16.60;9.03;;;;;;;-3.24;100.00;101541.34;5039776;28;20558;-72
2020/12/20 02:45:35;;;;;;;19.03;10.20;;;;;;;-3.18;100.00;101545.84;5052306;28;20504;-73
2020/12/20 02:48:01;;;;;;;17.97;9.20;;;;;;;-3.18;100.00;101543.31;5059368;28;20468;-72
2020/12/20 02:50:29;;;;;;;14.03;8.70;;;;;;;-3.22;100.00;101540.53;5044148;28;20473;-72
2020/12/20 02:52:55;;;;;;;19.07;9.93;;;;;;;-3.22;100.00;101540.53;5042345;28;20974;-72
2020/12/20 02:55:24;;;;;;;19.97;9.83;;;;;;;-3.18;100.00;101557.72;5034112;28;20205;-73
2020/12/20 02:58:02;;;;;;;16.57;9.67;;;;;;;-3.10;100.00;101543.63;5043625;28;20492;-73
2020/12/20 03:00:41;;;;;;;16.47;8.60;;;;;;;-3.23;100.00;101537.13;5038768;28;20490;-72
2020/12/20 03:03:11;;;;;;;19.83;10.53;;;;;;;-3.26;100.00;101535.28;5055578;28;20447;-72
2020/12/20 03:05:39;;;;;;;21.33;10.93;;;;;;;-3.21;100.00;101545.72;5041308;28;20514;-72
2020/12/20 03:08:07;;;;;;;16.23;8.87;;;;;;;-3.15;100.00;101545.09;5038381;28;20472;-72
2020/12/20 03:10:35;;;;;;;19.70;9.93;;;;;;;-3.17;100.00;101546.72;5036469;28;20486;-73
2020/12/20 03:13:02;;;;;;;17.47;9.27;;;;;;;-3.21;100.00;101538.06;5044676;28;20984;-72
2020/12/20 03:15:31;;;;;;;17.23;9.23;;;;;;;-3.18;100.00;101544.94;5040273;28;20556;-72
2020/12/20 03:17:57;;;;;;;20.27;9.60;;;;;;;-3.17;100.00;101541.63;5058319;28;20864;-72
2020/12/20 03:20:25;;;;;;;17.90;9.43;;;;;;;-3.17;100.00;101539.94;5052587;28;20238;-73
2020/12/20 03:22:53;;;;;;;15.33;8.37;;;;;;;-3.18;100.00;101540.75;5051562;28;20462;-72
2020/12/20 03:25:52;;;;;;;14.77;8.10;;;;;;;-3.15;100.00;101535.78;5033272;28;20774;-72
2020/12/20 03:28:45;;;;;;;18.20;9.87;;;;;;;-3.12;100.00;101535.03;5049296;28;20492;-72
2020/12/20 03:31:24;;;;;;;14.67;9.33;;;;;;;-3.10;100.00;101534.28;5039132;28;20485;-72
2020/12/20 03:34:05;;;;;;;16.30;9.40;;;;;;;-3.08;100.00;101522.50;5044463;28;20464;-72
2020/12/20 03:36:46;;;;;;;17.87;9.23;;;;;;;-3.09;100.00;101519.88;5045450;28;21075;-72
2020/12/20 03:39:14;;;;;;;17.63;8.97;;;;;;;-3.09;100.00;101517.31;5042615;28;20463;-72
2020/12/20 03:41:42;;;;;;;19.30;9.57;;;;;;;-3.02;100.00;101523.56;5034513;28;20463;-72
2020/12/20 03:44:13;;;;;;;17.00;9.43;;;;;;;-3.01;100.00;101517.63;5035783;28;20722;-72
2020/12/20 03:46:39;;;;;;;18.43;9.30;;;;;;;-3.05;100.00;101522.59;5043704;28;20454;-72
2020/12/20 03:49:05;;;;;;;19.50;10.10;;;;;;;-3.05;100.00;101521.75;5052922;28;20721;-72
2020/12/20 03:51:32;;;;;;;19.03;10.10;;;;;;;-3.05;100.00;101520.06;5060090;28;20461;-72
2020/12/20 03:53:58;;;;;;;18.60;10.40;;;;;;;-3.00;100.00;101519.41;5032455;28;20469;-72
2020/12/20 03:56:25;;;;;;;16.83;9.03;;;;;;;-3.00;100.00;101524.50;5059794;28;20751;-72
2020/12/20 03:58:59;;;;;;;17.10;9.50;;;;;;;-2.98;100.00;101523.75;5041114;28;20979;-72
2020/12/20 04:01:27;;;;;;;18.10;10.27;;;;;;;-2.94;100.00;101520.50;5041368;28;20557;-72
2020/12/20 04:03:53;;;;;;;18.33;9.27;;;;;;;-2.86;100.00;101516.63;5042472;28;20460;-72
2020/12/20 04:06:20;;;;;;;17.47;9.10;;;;;;;-2.87;100.00;101509.78;5034727;28;20460;-72
2020/12/20 04:08:46;;;;;;;17.60;9.70;;;;;;;-2.87;100.00;101514.00;5041362;28;20499;-73
2020/12/20 04:11:38;;;;;;;17.53;8.90;;;;;;;-2.90;100.00;101522.41;5031958;28;20432;-72
2020/12/20 04:14:07;;;;;;;17.27;8.57;;;;;;;-2.88;100.00;101522.47;5057686;28;20471;-72
2020/12/20 04:16:36;;;;;;;19.53;9.43;;;;;;;-2.90;100.00;101514.75;5039866;28;20447;-72
2020/12/20 04:19:01;;;;;;;17.53;9.13;;;;;;;-2.93;100.00;101522.28;5040609;28;20460;-73
2020/12/20 04:21:27;;;;;;;17.30;9.37;;;;;;;-2.90;100.00;101519.00;5032788;28;20584;-73
2020/12/20 04:23:53;;;;;;;19.10;9.60;;;;;;;-2.86;100.00;101515.75;5059134;28;20193;-72
2020/12/20 04:26:25;;;;;;;17.57;9.23;;;;;;;-2.92;100.00;101518.94;5041573;28;20262;-72
2020/12/20 04:29:04;;;;;;;18.17;9.67;;;;;;;-2.93;100.00;101523.97;5049740;28;20566;-72
2020/12/20 04:31:38;;;;;;;16.90;8.73;;;;;;;-2.95;100.00;101525.56;5037546;28;20543;-72
2020/12/20 04:34:04;;;;;;;22.60;11.40;;;;;;;-2.93;100.00;101524.81;5037508;28;20465;-72
2020/12/20 04:36:30;;;;;;;19.17;11.10;;;;;;;-2.93;100.00;101517.16;5045489;28;20471;-72
2020/12/20 04:39:04;;;;;;;20.87;11.40;;;;;;;-2.90;100.00;101521.56;5046915;28;20449;-73
2020/12/20 04:41:31;;;;;;;16.13;10.17;;;;;;;-2.89;100.00;101516.47;5032925;28;20491;-72
2020/12/20 04:44:02;;;;;;;17.40;9.70;;;;;;;-2.91;100.00;101524.91;5035845;28;20448;-72
2020/12/20 04:46:31;;;;;;;18.03;9.90;;;;;;;-2.91;100.00;101535.09;5039245;28;20460;-72
2020/12/20 04:49:22;;;;;;;14.97;9.40;;;;;;;-2.92;100.00;101534.25;5044176;28;20454;-72
2020/12/20 04:51:52;;;;;;;15.20;8.87;;;;;;;-2.88;100.00;101531.00;5041454;28;20545;-72
2020/12/20 04:54:19;;;;;;;17.83;9.63;;;;;;;-2.88;100.00;101532.69;5038712;28;20527;-72
2020/12/20 04:56:46;;;;;;;16.77;8.93;;;;;;;-2.88;100.00;101535.25;5034107;28;20461;-72
2020/12/20 04:59:26;;;;;;;16.63;8.40;;;;;;;-2.91;100.00;101535.97;5037565;28;20548;-72
2020/12/20 05:01:58;;;;;;;16.70;9.10;;;;;;;-2.93;100.00;101540.13;5044828;28;20439;-73
2020/12/20 05:04:26;;;;;;;18.13;9.33;;;;;;;-2.91;100.00;101537.66;5047965;28;20983;-72
2020/12/20 05:06:53;;;;;;;16.43;9.27;;;;;;;-2.90;100.00;101537.72;5029983;28;22385;-72
2020/12/20 05:09:46;;;;;;;16.57;8.87;;;;;;;-2.73;100.00;101546.09;5034420;28;20480;-72
2020/12/20 05:12:23;;;;;;;18.20;9.40;;;;;;;-2.82;100.00;101537.19;5040530;28;21022;-72
2020/12/20 05:14:50;;;;;;;17.57;8.73;;;;;;;-2.86;100.00;101541.28;5029772;28;20808;-72
2020/12/20 05:17:21;;;;;;;15.33;8.17;;;;;;;-2.90;100.00;101537.72;5035252;28;20450;-72
2020/12/20 05:20:07;;;;;;;15.50;7.63;;;;;;;-2.95;100.00;101534.09;5038600;28;20484;-72
2020/12/20 05:22:35;;;;;;;19.53;9.80;;;;;;;-2.99;100.00;101533.88;5037354;28;20455;-72
2020/12/20 05:25:15;;;;;;;16.83;9.20;;;;;;;-2.97;100.00;101534.81;5032717;28;20622;-72
2020/12/20 05:27:43;;;;;;;19.63;9.90;;;;;;;-2.89;100.00;101539.44;5045896;28;20464;-72
2020/12/20 05:30:18;;;;;;;17.20;9.40;;;;;;;-2.91;100.00;101537.66;5034497;28;20481;-72
2020/12/20 05:33:07;;;;;;;13.90;8.73;;;;;;;-2.93;100.00;101526.50;5020511;28;20448;-72
2020/12/20 05:35:36;;;;;;;18.07;10.33;;;;;;;-3.03;100.00;101527.78;5038370;28;21296;-72
2020/12/20 05:38:03;;;;;;;14.60;8.60;;;;;;;-3.03;100.00;101530.34;5051782;28;20537;-72
2020/12/20 05:40:31;;;;;;;18.60;10.07;;;;;;;-3.05;100.00;101532.81;5027279;28;20579;-72
2020/12/20 05:43:00;;;;;;;18.60;9.80;;;;;;;-3.10;100.00;101536.84;5032196;28;20516;-72
2020/12/20 05:45:30;;;;;;;17.53;9.50;;;;;;;-3.00;100.00;101530.47;5052503;28;20535;-72
2020/12/20 05:48:13;;;;;;;19.13;10.13;;;;;;;-3.03;100.00;101522.69;5036200;28;20467;-72
2020/12/20 05:50:49;;;;;;;16.60;9.10;;;;;;;-3.07;100.00;101514.00;5046063;28;21096;-72
2020/12/20 05:53:15;;;;;;;18.53;9.27;;;;;;;-3.05;100.00;101520.06;5036892;28;20459;-72
2020/12/20 05:55:41;;;;;;;19.17;9.90;;;;;;;-3.01;100.00;101523.59;5051444;28;20457;-72
2020/12/20 05:58:09;;;;;;;16.57;8.70;;;;;;;-2.95;100.00;101517.91;5046222;28;20193;-72
2020/12/20 06:00:37;;;;;;;16.70;9.17;;;;;;;-2.95;100.00;101513.69;5057560;28;20287;-72
2020/12/20 06:03:04;;;;;;;13.87;7.87;;;;;;;-2.91;100.00;101514.69;5054080;28;20456;-72
2020/12/20 06:05:34;;;;;;;15.40;7.73;;;;;;;-2.88;100.00;101510.59;5048060;28;20454;-72
2020/12/20 06:08:05;;;;;;;16.27;8.63;;;;;;;-2.80;100.00;101517.69;5043963;28;20496;-72
2020/12/20 06:10:50;;;;;;;15.97;7.93;;;;;;;-2.75;100.00;101506.84;5052002;28;20475;-72
2020/12/20 06:13:19;;;;;;;14.13;8.23;;;;;;;-2.74;100.00;101512.88;5028649;28;20466;-72
2020/12/20 06:15:46;;;;;;;16.77;7.07;;;;;;;-2.68;100.00;101524.19;5046260;28;20558;-72
2020/12/20 06:18:14;;;;;;;13.80;7.57;;;;;;;-2.67;100.00;101523.38;5043551;28;20458;-72
2020/12/20 06:20:50;;;;;;;16.57;8.10;;;;;;;-2.65;100.00;101526.00;5051524;28;20897;-72
2020/12/20 06:23:22;;;;;;;14.57;8.87;;;;;;;-2.65;100.00;101526.00;5053537;28;21215;-72
2020/12/20 06:25:50;;;;;;;14.23;7.77;;;;;;;-2.63;100.00;101531.19;5047781;28;20456;-72
2020/12/20 06:28:20;;;;;;;12.20;7.70;;;;;;;-2.67;100.00;101525.94;5060898;28;20471;-72
2020/12/20 06:30:46;;;;;;;18.60;8.80;;;;;;;-2.65;100.00;101538.78;5053121;28;20467;-72
2020/12/20 06:33:18;;;;;;;14.23;8.00;;;;;;;-2.64;100.00;101547.28;5057308;28;20501;-73
2020/12/20 06:35:48;;;;;;;15.93;8.47;;;;;;;-2.68;100.00;101543.75;5051743;28;20218;-72
2020/12/20 06:38:15;;;;;;;17.03;8.90;;;;;;;-2.66;100.00;101544.69;5054143;28;20204;-72
2020/12/20 06:40:43;;;;;;;23.00;12.40;;;;;;;-2.69;100.00;101544.53;5051425;28;20480;-72
2020/12/20 06:43:11;;;;;;;18.30;9.87;;;;;;;-2.72;100.00;101547.84;5052927;28;20455;-72
2020/12/20 06:45:44;;;;;;;28.73;15.27;;;;;;;-2.71;100.00;101552.16;5049163;28;20459;-72
2020/12/20 06:48:12;;;;;;;18.77;9.20;;;;;;;-2.69;100.00;101550.53;5047249;28;20474;-72
2020/12/20 06:50:44;;;;;;;19.00;8.80;;;;;;;-2.74;100.00;101544.34;5038601;28;20481;-73
2020/12/20 06:53:12;;;;;;;17.10;8.20;;;;;;;-2.73;100.00;101540.97;5045948;28;20535;-72
2020/12/20 06:55:38;;;;;;;13.93;7.50;;;;;;;-2.71;100.00;101538.50;5062644;28;20985;-72
2020/12/20 06:58:17;;;;;;;18.60;9.30;;;;;;;-2.71;100.00;101533.38;5047568;28;21015;-72
2020/12/20 07:00:46;;;;;;;14.43;7.77;;;;;;;-2.70;100.00;101538.56;5054607;28;20482;-73
2020/12/20 07:03:38;;;;;;;14.93;8.80;;;;;;;-2.72;100.00;101537.63;5048810;28;20539;-73
2020/12/20 07:06:10;;;;;;;18.27;9.87;;;;;;;-2.76;100.00;101540.88;5052807;28;20485;-72
2020/12/20 07:08:37;;;;;;;17.87;9.30;;;;;;;-2.73;100.00;101547.78;5047085;28;20484;-72
2020/12/20 07:11:05;;;;;;;20.00;11.10;;;;;;;-2.74;100.00;101546.06;5037628;28;20528;-72
2020/12/20 07:13:34;;;;;;;26.30;12.67;;;;;;;-2.76;100.00;101547.63;5050699;28;20459;-72
2020/12/20 07:16:05;;;;;;;20.87;12.00;;;;;;;-2.76;100.00;101548.53;5053447;28;20468;-72
2020/12/20 07:18:38;;;;;;;16.80;8.97;;;;;;;-2.70;100.00;101553.88;5045309;28;20451;-72
2020/12/20 07:21:04;;;;;;;14.47;8.20;;;;;;;-2.71;100.00;101548.72;5054692;28;20843;-72
2020/12/20 07:23:30;;;;;;;16.67;8.93;;;;;;;-2.72;100.00;101558.06;5056149;28;20455;-72
2020/12/20 07:25:57;;;;;;;15.07;8.57;;;;;;;-2.72;100.00;101552.09;5053885;28;20189;-72
2020/12/20 07:28:23;;;;;;;16.17;8.93;;;;;;;-2.68;100.00;101553.97;5064006;28;20217;-72
2020/12/20 07:30:50;;;;;;;15.13;8.63;;;;;;;-2.65;100.00;101553.22;5055308;28;20515;-72
2020/12/20 07:33:16;;;;;;;18.37;9.43;;;;;;;-2.63;100.00;101555.03;5060847;28;20200;-72
2020/12/20 07:35:44;;;;;;;17.67;8.80;;;;;;;-2.66;100.00;101557.44;5056823;28;20948;-72
2020/12/20 07:38:10;;;;;;;16.40;8.50;;;;;;;-2.61;100.00;101563.63;5054566;28;20448;-72
2020/12/20 07:40:36;;;;;;;17.30;9.00;;;;;;;-2.57;100.00;101560.41;5049578;28;20483;-72
2020/12/20 07:43:02;;;;;;;15.80;8.33;;;;;;;-2.53;100.00;101562.28;5059237;28;20562;-73
2020/12/20 07:45:27;;;;;;;16.50;9.00;;;;;;;-2.50;100.00;101561.50;5033211;28;20209;-72
2020/12/20 07:47:54;;;;;;;14.80;7.90;;;;;;;-2.46;100.00;101560.84;5052937;28;20519;-72
2020/12/20 07:50:21;;;;;;;17.90;9.10;;;;;;;-2.42;100.00;101566.97;5049980;28;20640;-72
2020/12/20 07:52:48;;;;;;;18.80;9.93;;;;;;;-2.40;100.00;101571.31;5050759;28;20942;-72
2020/12/20 07:55:14;;;;;;;17.20;8.87;;;;;;;-2.35;100.00;101561.31;5053836;28;20462;-73
2020/12/20 07:57:40;;;;;;;18.00;10.23;;;;;;;-2.32;100.00;101562.28;5043962;28;20198;-72
2020/12/20 08:00:06;;;;;;;22.03;11.83;;;;;;;-2.24;100.00;101561.75;5059915;28;20232;-72
2020/12/20 08:02:38;;;;;;;18.80;10.63;;;;;;;-2.17;100.00;101558.63;5052113;28;20443;-72
2020/12/20 08:05:06;;;;;;;21.73;11.80;;;;;;;-2.10;100.00;101550.38;5052105;28;20478;-73
2020/12/20 08:07:32;;;;;;;21.17;12.27;;;;;;;-2.04;100.00;101549.75;5050195;28;20485;-73
2020/12/20 08:09:58;;;;;;;18.37;10.37;;;;;;;-1.97;100.00;101552.63;5051977;28;20956;-73
2020/12/20 08:12:24;;;;;;;23.20;11.37;;;;;;;-1.88;100.00;101552.13;5049881;28;20210;-73
2020/12/20 08:15:00;;;;;;;17.13;10.10;;;;;;;-1.82;100.00;101557.47;5057716;28;20199;-73
2020/12/20 08:17:26;;;;;;;18.23;9.90;;;;;;;-1.77;100.00;101558.53;5051729;28;20208;-73
2020/12/20 08:19:52;;;;;;;15.60;8.43;;;;;;;-1.69;100.00;101558.81;5054753;28;20843;-73
2020/12/20 08:22:22;;;;;;;18.50;10.47;;;;;;;-1.60;100.00;101555.75;5053931;28;20272;-72
2020/12/20 08:24:49;;;;;;;16.37;8.77;;;;;;;-1.49;100.00;101563.84;5053122;28;20328;-73
2020/12/20 08:27:17;;;;;;;16.20;10.20;;;;;;;-1.39;100.00;101560.78;5060585;28;20213;-73
2020/12/20 08:29:44;;;;;;;16.63;9.83;;;;;;;-1.35;100.00;101562.69;5055209;28;20225;-73
2020/12/20 08:32:12;;;;;;;18.40;9.23;;;;;;;-1.30;100.00;101560.28;5055671;28;20663;-72
2020/12/20 08:34:38;;;;;;;17.50;9.70;;;;;;;-1.21;100.00;101556.38;5046732;28;20235;-73
2020/12/20 08:37:09;;;;;;;17.77;10.13;;;;;;;-1.13;100.00;101553.22;5049832;28;20230;-73
2020/12/20 08:39:36;;;;;;;16.80;9.27;;;;;;;-1.05;100.00;101554.38;5048952;28;20758;-73
2020/12/20 08:42:03;;;;;;;16.17;9.70;;;;;;;-1.00;100.00;101540.94;5052422;28;20215;-73
2020/12/20 08:44:29;;;;;;;19.27;10.77;;;;;;;-0.96;100.00;101544.47;5045480;28;20250;-73
2020/12/20 08:47:05;;;;;;;17.50;9.63;;;;;;;-0.90;100.00;101551.50;5054843;28;20203;-73
2020/12/20 08:49:31;;;;;;;15.73;9.30;;;;;;;-0.85;100.00;101547.41;5048747;28;20215;-73
2020/12/20 08:52:07;;;;;;;18.17;10.00;;;;;;;-0.80;100.00;101543.31;5051255;28;20677;-73
2020/12/20 08:54:33;;;;;;;15.20;8.53;;;;;;;-0.74;100.00;101543.50;5052250;28;20225;-73
2020/12/20 08:57:03;;;;;;;14.47;8.77;;;;;;;-0.67;100.00;101540.38;5050617;28;20252;-73
2020/12/20 08:59:30;;;;;;;13.67;8.40;;;;;;;-0.62;100.00;101541.38;5054460;28;20219;-74
2020/12/20 09:01:58;;;;;;;18.83;9.20;;;;;;;-0.59;100.00;101538.94;5033804;28;20203;-73
2020/12/20 09:04:24;;;;;;;14.97;8.50;;;;;;;-0.50;100.00;101535.81;5059429;28;20322;-73
2020/12/20 09:07:08;;;;;;;11.77;7.50;;;;;;;-0.45;100.00;101530.84;5046851;28;20537;-73
2020/12/20 09:09:34;;;;;;;15.73;8.47;;;;;;;-0.44;100.00;101533.47;5060315;28;20210;-73
2020/12/20 09:12:16;;;;;;;16.40;9.77;;;;;;;-0.40;100.00;101537.88;5049789;28;20198;-73
2020/12/20 09:14:57;;;;;;;16.37;9.50;;;;;;;-0.40;100.00;101542.13;5051179;28;20194;-73
2020/12/20 09:17:28;;;;;;;17.43;11.70;;;;;;;-0.38;100.00;101533.66;5048459;28;20196;-73
2020/12/20 09:19:56;;;;;;;19.50;11.27;;;;;;;-0.33;100.00;101533.81;5047348;28;20719;-73
2020/12/20 09:22:21;;;;;;;21.50;13.37;;;;;;;-0.30;100.00;101531.38;5050546;28;20207;-73
2020/12/20 09:24:47;;;;;;;17.50;10.30;;;;;;;-0.25;100.00;101534.06;5048327;28;20199;-73
2020/12/20 09:27:14;;;;;;;17.70;11.00;;;;;;;-0.21;100.00;101536.78;5043386;28;20204;-73
2020/12/20 09:29:51;;;;;;;18.50;11.97;;;;;;;-0.11;100.00;101535.38;5049350;28;20211;-73
2020/12/20 09:32:19;;;;;;;19.00;10.60;;;;;;;-0.03;100.00;101538.19;5052383;28;20292;-73
2020/12/20 09:34:46;;;;;;;20.60;11.40;;;;;;;0.10;100.00;101536.88;5029702;28;20215;-73
2020/12/20 09:37:12;;;;;;;24.90;12.10;;;;;;;0.21;100.00;101530.38;5031647;28;20448;-73
2020/12/20 09:39:56;;;;;;;21.87;12.43;;;;;;;0.32;100.00;101526.47;5031283;28;20384;-73
2020/12/20 09:42:23;;;;;;;16.50;10.83;;;;;;;0.41;100.00;101512.19;5045597;28;20489;-73
2020/12/20 09:44:49;;;;;;;18.83;10.57;;;;;;;0.49;100.00;101519.28;5046517;28;20206;-73
2020/12/20 09:47:15;;;;;;;15.87;10.30;;;;;;;0.56;100.00;101518.63;5031233;28;20215;-73
2020/12/20 09:49:41;;;;;;;17.93;10.13;;;;;;;0.65;100.00;101515.47;5047336;28;20219;-73
2020/12/20 09:52:06;;;;;;;20.53;11.07;;;;;;;0.75;100.00;101514.00;5047844;28;20753;-73
2020/12/20 09:54:32;;;;;;;18.93;10.53;;;;;;;0.83;100.00;101515.09;5050587;28;20284;-73
2020/12/20 09:56:58;;;;;;;18.60;10.80;;;;;;;0.93;100.00;101524.81;5048238;28;20274;-73
2020/12/20 09:59:25;;;;;;;18.80;10.37;;;;;;;1.03;100.00;101517.34;5048293;28;20266;-73
2020/12/20 10:01:51;;;;;;;17.13;10.73;;;;;;;1.09;100.00;101517.50;5051622;28;20200;-74
2020/12/20 10:04:16;;;;;;;16.83;9.83;;;;;;;1.16;100.00;101516.81;5049857;28;20201;-73
2020/12/20 10:06:42;;;;;;;20.00;10.33;;;;;;;1.24;100.00;101512.78;5045505;28;20594;-73
2020/12/20 10:09:08;;;;;;;18.37;10.60;;;;;;;1.33;99.84;101512.16;5055436;28;20315;-73
2020/12/20 10:11:34;;;;;;;19.97;10.17;;;;;;;1.39;100.00;101514.00;5045112;28;21031;-73
2020/12/20 10:14:00;;;;;;;16.13;10.17;;;;;;;1.46;99.81;101500.47;5047500;28;20197;-73
2020/12/20 10:16:28;;;;;;;17.93;9.80;;;;;;;1.54;99.00;101504.09;5048392;28;20200;-73
2020/12/20 10:18:54;;;;;;;15.80;10.47;;;;;;;1.63;98.52;101498.31;5051918;28;20278;-73
2020/12/20 10:21:20;;;;;;;17.80;10.20;;;;;;;1.70;99.15;101502.78;5044956;28;20309;-73
2020/12/20 10:23:46;;;;;;;16.50;10.50;;;;;;;1.85;97.76;101508.31;5046233;28;20192;-78
2020/12/20 10:26:12;;;;;;;16.47;10.00;;;;;;;1.91;97.03;101502.44;5030624;28;20286;-73
2020/12/20 10:28:40;;;;;;;18.07;9.57;;;;;;;1.99;96.78;101506.06;5032051;28;20223;-74
2020/12/20 10:31:06;;;;;;;16.97;10.07;;;;;;;2.07;95.96;101501.06;5051557;28;20218;-73
2020/12/20 10:33:33;;;;;;;19.10;10.57;;;;;;;2.13;95.76;101495.19;5047223;28;20231;-73
2020/12/20 10:36:01;;;;;;;19.97;11.07;;;;;;;2.22;95.19;101492.84;5042831;28;20669;-74
2020/12/20 10:38:27;;;;;;;17.33;10.93;;;;;;;2.32;93.95;101493.91;5029700;28;20243;-73
2020/12/20 10:40:54;;;;;;;15.40;9.13;;;;;;;2.37;93.93;101498.31;5053279;28;20637;-73
2020/12/20 10:43:19;;;;;;;19.93;10.57;;;;;;;2.43;93.09;101490.72;5049527;28;20214;-73
2020/12/20 10:45:45;;;;;;;17.20;9.30;;;;;;;2.50;92.42;101493.41;5055183;28;20555;-74
2020/12/20 10:48:11;;;;;;;18.50;10.53;;;;;;;2.56;91.97;101496.13;5043310;28;20518;-73
2020/12/20 10:50:38;;;;;;;16.10;10.43;;;;;;;2.60;90.71;101495.34;5049553;28;20257;-73
2020/12/20 10:53:04;;;;;;;18.17;10.13;;;;;;;2.65;90.03;101486.00;5045070;28;20203;-74
2020/12/20 10:55:30;;;;;;;17.57;10.27;;;;;;;2.65;89.76;101493.75;5052150;28;20229;-73
2020/12/20 10:57:55;;;;;;;16.90;10.53;;;;;;;2.65;90.36;101488.59;5053086;28;20190;-73
2020/12/20 11:00:22;;;;;;;18.77;10.40;;;;;;;2.69;90.00;101490.41;5048833;28;20222;-73
2020/12/20 11:02:48;;;;;;;19.97;11.23;;;;;;;2.72;89.85;101495.59;5050886;28;20553;-74
2020/12/20 11:05:14;;;;;;;19.30;11.07;;;;;;;2.77;89.22;101491.41;5049741;28;20202;-73
2020/12/20 11:07:41;;;;;;;20.97;12.17;;;;;;;2.81;89.54;101492.34;5056088;28;20278;-73
2020/12/20 11:10:06;;;;;;;19.67;11.37;;;;;;;2.86;88.51;101495.88;5034072;28;20218;-73
2020/12/20 11:12:32;;;;;;;13.00;9.33;;;;;;;2.89;88.49;101482.19;5042943;28;20206;-73
2020/12/20 11:14:58;;;;;;;16.27;10.27;;;;;;;2.93;88.69;101486.56;5049194;28;20660;-74
2020/12/20 11:17:24;;;;;;;16.57;10.10;;;;;;;2.97;89.24;101485.75;5056363;28;20202;-74
2020/12/20 11:19:53;;;;;;;16.17;9.60;;;;;;;2.98;88.70;101480.66;5050374;28;20226;-74